Share

Dillingham, AK

Dillingham (PADL) Elev 95 ft | 59.04 °N, 158.51 °W | Change Station

Current weather conditions updated 56 minutes ago

Light Rain Showers
Light Showers Rain
43 °F
Feels Like 40 °F
N
5
Wind Variable Wind from West
Sunrise 7:13 AM
Sunset 9:54 PM
Moon Waning Gibbous

Tomorrow is forecast to be nearly the same temperature as today. Afternoon showers.

Pressure 29.34 in
Visibility 20.0 miles
Clouds Few 1000 ft
Mostly Cloudy 3000 ft
Overcast 4500 ft
Windchill 40 °F
Dew Point 37 °F
Humidity 81%
Rainfall 0.00 in
Snow Depth Not available.
UV 0 out of 16
Pollen Not available.
Air Quality Not available.
Flu Activity Sporadic
METAR PADL 180346Z 28004KT 20SM -SHRA FEW010 BKN030 OVC045 06/03 A2934 RMK VIRGA N

More Conditions Fewer Conditions

Pressure 29.34 in
Visibility 20.0 miles
Clouds Few 1000 ft
Mostly Cloudy 3000 ft
Overcast 4500 ft
Windchill 40 °F
Dew Point 37 °F
Humidity 81%
Rainfall 0.00 in
Snow Depth Not available.
UV 0 out of 16
Pollen Not available.
Air Quality Not available.
Flu Activity Sporadic
METAR PADL 180346Z 28004KT 20SM -SHRA FEW010 BKN030 OVC045 06/03 A2934 RMK VIRGA N

More Conditions Fewer Conditions

10-Day Forecast

Almanac

Astronomy

Apr. 17, 2014 Rise Set
Actual Time 7:13 AM AKDT 9:54 PM AKDT
Civil Twilight 6:28 AM AKDT 10:39 PM AKDT
Nautical Twilight 5:28 AM AKDT 11:40 PM AKDT
Astronomical Twilight 4:04 AM AKDT 1:07 AM AKDT
Moon 12:12 AM AKDT (4/17) 8:27 AM AKDT (4/17)
Length of Visible Light 16h 11m
Length of Day
14h 40m
Tomorrow will be 5m 9s longer.
Waning Gibbous, 90% of the Moon is Illuminated
Apr 18
Waning Gibbous
Apr 22
Last Quarter
Apr 29
New
May 6
First Quarter
May 14
Full

Yesterday's Extremes

State Highs State Lows

Community

  • SUNRISE THROUGH THE TREES.
    SUNRISE THROUGH THE TREES.
  • Dog Wood Blossoms
    Dog Wood Blossoms
  • Morning Light
    Morning Light
  • New Day
    New Day
  • Lake Michigan Sunrise
    Lake Michigan Sunrise

WunderPhotos

Upload Photos

1,702,258 photos uploaded!

WunderBlogs® & News

Nearby

Snow Depth

Station Depth Elevation
Port Graham 9 in 300 ft
Mcneil Canyon 10 in 1320 ft
MF Bradley River 21 in 2300 ft
Nuka Glacier 32 in 1250 ft
Cooper Lake 23 in 1200 ft

Coastal Water Temperatures

Place Temperature
No Stations Reporting

Earthquake Activity

City Distance Mag. Time & Date
No recent earthquake activity has been reported nearby.
Minimum magnitude displayed is 2.5.

Nearby Weather Stations

There are no personal weather stations in this area.

What do you think?

We're not finished. Please let us know what you like, what you don't like, and what you are still missing.